sensor_id;sensor_type;location;lat;lon;timestamp;P1;durP1;ratioP1;P2;durP2;ratioP2
41305;SDS011;27051;50.376;19.152;2023-07-13T00:01:31;11.60;;;7.10;;
41305;SDS011;27051;50.376;19.152;2023-07-13T00:04:20;9.30;;;6.10;;
41305;SDS011;27051;50.376;19.152;2023-07-13T00:06:49;12.00;;;5.90;;
41305;SDS011;27051;50.376;19.152;2023-07-13T00:09:35;12.90;;;6.90;;
41305;SDS011;27051;50.376;19.152;2023-07-13T00:12:19;11.70;;;6.30;;
41305;SDS011;27051;50.376;19.152;2023-07-13T00:15:11;11.70;;;6.40;;
41305;SDS011;27051;50.376;19.152;2023-07-13T00:17:42;13.80;;;7.00;;
41305;SDS011;27051;50.376;19.152;2023-07-13T00:20:09;11.40;;;6.20;;
41305;SDS011;27051;50.376;19.152;2023-07-13T00:22:36;11.40;;;7.30;;
41305;SDS011;27051;50.376;19.152;2023-07-13T00:25:03;11.80;;;7.30;;
41305;SDS011;27051;50.376;19.152;2023-07-13T00:27:31;11.90;;;7.00;;
41305;SDS011;27051;50.376;19.152;2023-07-13T00:29:58;12.20;;;7.00;;
41305;SDS011;27051;50.376;19.152;2023-07-13T00:32:46;11.40;;;7.20;;
41305;SDS011;27051;50.376;19.152;2023-07-13T00:35:12;11.40;;;6.90;;
41305;SDS011;27051;50.376;19.152;2023-07-13T00:37:40;14.60;;;7.70;;
41305;SDS011;27051;50.376;19.152;2023-07-13T00:40:09;10.50;;;7.00;;
41305;SDS011;27051;50.376;19.152;2023-07-13T00:42:37;13.40;;;7.20;;
41305;SDS011;27051;50.376;19.152;2023-07-13T00:53:45;11.20;;;7.10;;
41305;SDS011;27051;50.376;19.152;2023-07-13T00:56:11;14.30;;;7.70;;
41305;SDS011;27051;50.376;19.152;2023-07-13T00:58:39;12.90;;;7.10;;
41305;SDS011;27051;50.376;19.152;2023-07-13T01:01:06;13.20;;;7.50;;
41305;SDS011;27051;50.376;19.152;2023-07-13T01:03:33;12.00;;;7.40;;
41305;SDS011;27051;50.376;19.152;2023-07-13T01:06:00;15.70;;;7.40;;
41305;SDS011;27051;50.376;19.152;2023-07-13T01:08:33;14.90;;;7.90;;
41305;SDS011;27051;50.376;19.152;2023-07-13T01:11:00;11.30;;;7.30;;
41305;SDS011;27051;50.376;19.152;2023-07-13T01:13:27;9.70;;;6.90;;
41305;SDS011;27051;50.376;19.152;2023-07-13T01:15:56;12.90;;;7.30;;
41305;SDS011;27051;50.376;19.152;2023-07-13T01:18:29;13.20;;;7.80;;
41305;SDS011;27051;50.376;19.152;2023-07-13T01:21:01;11.90;;;7.00;;
41305;SDS011;27051;50.376;19.152;2023-07-13T01:23:31;12.10;;;7.70;;
41305;SDS011;27051;50.376;19.152;2023-07-13T01:25:58;13.90;;;7.60;;
41305;SDS011;27051;50.376;19.152;2023-07-13T01:28:33;14.60;;;8.90;;
41305;SDS011;27051;50.376;19.152;2023-07-13T01:30:59;14.20;;;8.70;;
41305;SDS011;27051;50.376;19.152;2023-07-13T01:33:26;14.90;;;9.10;;
41305;SDS011;27051;50.376;19.152;2023-07-13T01:35:53;14.40;;;8.40;;
41305;SDS011;27051;50.376;19.152;2023-07-13T01:38:21;14.50;;;8.20;;
41305;SDS011;27051;50.376;19.152;2023-07-13T01:40:52;13.90;;;7.90;;
41305;SDS011;27051;50.376;19.152;2023-07-13T01:43:39;13.60;;;7.70;;
41305;SDS011;27051;50.376;19.152;2023-07-13T01:46:05;12.00;;;7.60;;
41305;SDS011;27051;50.376;19.152;2023-07-13T01:48:41;14.80;;;7.40;;
41305;SDS011;27051;50.376;19.152;2023-07-13T01:51:17;13.60;;;7.90;;
41305;SDS011;27051;50.376;19.152;2023-07-13T01:53:46;12.80;;;8.50;;
41305;SDS011;27051;50.376;19.152;2023-07-13T01:56:13;14.50;;;7.60;;
41305;SDS011;27051;50.376;19.152;2023-07-13T01:58:39;12.00;;;8.00;;
41305;SDS011;27051;50.376;19.152;2023-07-13T02:01:06;13.80;;;7.30;;
41305;SDS011;27051;50.376;19.152;2023-07-13T02:03:33;15.10;;;7.50;;
41305;SDS011;27051;50.376;19.152;2023-07-13T02:06:00;12.70;;;7.80;;
41305;SDS011;27051;50.376;19.152;2023-07-13T02:08:26;11.70;;;7.60;;
41305;SDS011;27051;50.376;19.152;2023-07-13T02:10:52;14.10;;;8.00;;
41305;SDS011;27051;50.376;19.152;2023-07-13T02:13:19;11.40;;;7.70;;
41305;SDS011;27051;50.376;19.152;2023-07-13T02:15:46;11.80;;;7.20;;
41305;SDS011;27051;50.376;19.152;2023-07-13T02:18:15;15.20;;;7.70;;
41305;SDS011;27051;50.376;19.152;2023-07-13T02:20:42;14.90;;;8.10;;
41305;SDS011;27051;50.376;19.152;2023-07-13T02:23:12;15.60;;;8.30;;
41305;SDS011;27051;50.376;19.152;2023-07-13T02:25:39;15.00;;;8.60;;
41305;SDS011;27051;50.376;19.152;2023-07-13T02:28:05;16.30;;;9.00;;
41305;SDS011;27051;50.376;19.152;2023-07-13T02:30:34;13.40;;;8.70;;
41305;SDS011;27051;50.376;19.152;2023-07-13T02:33:01;16.60;;;9.50;;
41305;SDS011;27051;50.376;19.152;2023-07-13T02:35:28;16.60;;;9.00;;
41305;SDS011;27051;50.376;19.152;2023-07-13T02:40:31;15.10;;;8.60;;
41305;SDS011;27051;50.376;19.152;2023-07-13T02:42:59;13.50;;;9.10;;
41305;SDS011;27051;50.376;19.152;2023-07-13T02:45:26;14.60;;;8.40;;
41305;SDS011;27051;50.376;19.152;2023-07-13T02:47:53;15.30;;;8.20;;
41305;SDS011;27051;50.376;19.152;2023-07-13T02:50:20;15.90;;;8.80;;
41305;SDS011;27051;50.376;19.152;2023-07-13T02:52:52;14.80;;;9.10;;
41305;SDS011;27051;50.376;19.152;2023-07-13T02:55:19;13.00;;;9.10;;
41305;SDS011;27051;50.376;19.152;2023-07-13T02:57:46;13.90;;;8.80;;
41305;SDS011;27051;50.376;19.152;2023-07-13T03:00:13;13.30;;;8.30;;
41305;SDS011;27051;50.376;19.152;2023-07-13T03:02:40;16.10;;;9.40;;
41305;SDS011;27051;50.376;19.152;2023-07-13T03:05:06;12.80;;;8.60;;
41305;SDS011;27051;50.376;19.152;2023-07-13T03:07:33;14.80;;;8.30;;
41305;SDS011;27051;50.376;19.152;2023-07-13T03:10:00;12.80;;;8.30;;
41305;SDS011;27051;50.376;19.152;2023-07-13T03:12:27;13.50;;;9.00;;
41305;SDS011;27051;50.376;19.152;2023-07-13T03:14:57;14.60;;;8.60;;
41305;SDS011;27051;50.376;19.152;2023-07-13T03:17:23;17.20;;;10.10;;
41305;SDS011;27051;50.376;19.152;2023-07-13T03:19:53;14.80;;;9.30;;
41305;SDS011;27051;50.376;19.152;2023-07-13T03:22:19;15.60;;;9.10;;
41305;SDS011;27051;50.376;19.152;2023-07-13T03:24:46;13.60;;;8.90;;
41305;SDS011;27051;50.376;19.152;2023-07-13T03:27:13;16.70;;;9.70;;
41305;SDS011;27051;50.376;19.152;2023-07-13T03:29:41;13.90;;;8.70;;
41305;SDS011;27051;50.376;19.152;2023-07-13T03:32:08;16.30;;;9.10;;
41305;SDS011;27051;50.376;19.152;2023-07-13T03:34:52;12.90;;;9.30;;
41305;SDS011;27051;50.376;19.152;2023-07-13T03:37:18;14.30;;;9.00;;
41305;SDS011;27051;50.376;19.152;2023-07-13T03:39:52;12.80;;;8.80;;
41305;SDS011;27051;50.376;19.152;2023-07-13T03:42:19;15.90;;;9.60;;
41305;SDS011;27051;50.376;19.152;2023-07-13T03:44:49;12.90;;;8.60;;
41305;SDS011;27051;50.376;19.152;2023-07-13T03:47:15;16.40;;;9.10;;
41305;SDS011;27051;50.376;19.152;2023-07-13T03:49:42;15.90;;;8.80;;
41305;SDS011;27051;50.376;19.152;2023-07-13T03:52:09;13.80;;;8.10;;
41305;SDS011;27051;50.376;19.152;2023-07-13T03:54:35;16.20;;;8.60;;
41305;SDS011;27051;50.376;19.152;2023-07-13T03:57:02;13.50;;;8.30;;
41305;SDS011;27051;50.376;19.152;2023-07-13T03:59:31;15.40;;;8.80;;
41305;SDS011;27051;50.376;19.152;2023-07-13T04:01:58;16.00;;;9.60;;
41305;SDS011;27051;50.376;19.152;2023-07-13T04:07:01;16.60;;;8.80;;
41305;SDS011;27051;50.376;19.152;2023-07-13T04:09:31;15.10;;;8.60;;
41305;SDS011;27051;50.376;19.152;2023-07-13T04:11:57;17.10;;;10.40;;
41305;SDS011;27051;50.376;19.152;2023-07-13T04:14:24;15.60;;;9.70;;
41305;SDS011;27051;50.376;19.152;2023-07-13T04:16:50;14.20;;;9.30;;
41305;SDS011;27051;50.376;19.152;2023-07-13T04:19:17;15.30;;;9.50;;
41305;SDS011;27051;50.376;19.152;2023-07-13T04:21:47;18.90;;;10.60;;
41305;SDS011;27051;50.376;19.152;2023-07-13T04:24:14;13.90;;;9.10;;
41305;SDS011;27051;50.376;19.152;2023-07-13T04:26:51;18.20;;;10.10;;
41305;SDS011;27051;50.376;19.152;2023-07-13T04:29:17;16.70;;;9.50;;
41305;SDS011;27051;50.376;19.152;2023-07-13T04:31:44;16.70;;;9.30;;
41305;SDS011;27051;50.376;19.152;2023-07-13T04:34:10;15.80;;;9.30;;
41305;SDS011;27051;50.376;19.152;2023-07-13T04:36:37;16.30;;;9.80;;
41305;SDS011;27051;50.376;19.152;2023-07-13T04:39:03;14.70;;;9.20;;
41305;SDS011;27051;50.376;19.152;2023-07-13T04:41:30;15.80;;;9.70;;
41305;SDS011;27051;50.376;19.152;2023-07-13T04:43:57;12.50;;;8.50;;
41305;SDS011;27051;50.376;19.152;2023-07-13T04:46:26;15.60;;;9.10;;
41305;SDS011;27051;50.376;19.152;2023-07-13T04:48:53;14.50;;;8.70;;
41305;SDS011;27051;50.376;19.152;2023-07-13T04:51:19;15.70;;;9.50;;
41305;SDS011;27051;50.376;19.152;2023-07-13T04:53:46;13.70;;;9.20;;
41305;SDS011;27051;50.376;19.152;2023-07-13T04:56:13;15.10;;;10.00;;
41305;SDS011;27051;50.376;19.152;2023-07-13T04:58:42;16.70;;;9.60;;
41305;SDS011;27051;50.376;19.152;2023-07-13T05:01:09;14.90;;;9.40;;
41305;SDS011;27051;50.376;19.152;2023-07-13T05:03:43;16.60;;;10.30;;
41305;SDS011;27051;50.376;19.152;2023-07-13T05:06:09;13.30;;;9.10;;
41305;SDS011;27051;50.376;19.152;2023-07-13T05:08:36;15.40;;;9.70;;
41305;SDS011;27051;50.376;19.152;2023-07-13T05:11:03;16.20;;;10.50;;
41305;SDS011;27051;50.376;19.152;2023-07-13T05:13:31;19.70;;;11.40;;
41305;SDS011;27051;50.376;19.152;2023-07-13T05:15:59;18.90;;;12.30;;
41305;SDS011;27051;50.376;19.152;2023-07-13T05:18:28;16.50;;;11.20;;
41305;SDS011;27051;50.376;19.152;2023-07-13T05:20:59;15.50;;;10.90;;
41305;SDS011;27051;50.376;19.152;2023-07-13T05:23:39;17.40;;;11.00;;
41305;SDS011;27051;50.376;19.152;2023-07-13T05:26:06;20.10;;;11.10;;
41305;SDS011;27051;50.376;19.152;2023-07-13T05:28:32;18.70;;;9.80;;
41305;SDS011;27051;50.376;19.152;2023-07-13T05:30:59;18.10;;;10.40;;
41305;SDS011;27051;50.376;19.152;2023-07-13T05:33:26;13.30;;;9.30;;
41305;SDS011;27051;50.376;19.152;2023-07-13T05:35:53;13.30;;;8.50;;
41305;SDS011;27051;50.376;19.152;2023-07-13T05:38:20;19.00;;;10.00;;
41305;SDS011;27051;50.376;19.152;2023-07-13T05:40:46;13.90;;;7.70;;
41305;SDS011;27051;50.376;19.152;2023-07-13T05:43:13;14.20;;;8.50;;
41305;SDS011;27051;50.376;19.152;2023-07-13T05:45:53;13.10;;;6.80;;
41305;SDS011;27051;50.376;19.152;2023-07-13T05:50:47;10.70;;;7.10;;
41305;SDS011;27051;50.376;19.152;2023-07-13T05:53:14;8.90;;;6.30;;
41305;SDS011;27051;50.376;19.152;2023-07-13T05:55:45;16.10;;;7.10;;
41305;SDS011;27051;50.376;19.152;2023-07-13T05:58:13;11.60;;;6.70;;
41305;SDS011;27051;50.376;19.152;2023-07-13T06:00:40;13.80;;;8.10;;
41305;SDS011;27051;50.376;19.152;2023-07-13T06:03:07;14.70;;;7.70;;
41305;SDS011;27051;50.376;19.152;2023-07-13T06:05:34;11.20;;;6.80;;
41305;SDS011;27051;50.376;19.152;2023-07-13T06:08:06;11.00;;;6.60;;
41305;SDS011;27051;50.376;19.152;2023-07-13T06:10:34;12.50;;;6.70;;
41305;SDS011;27051;50.376;19.152;2023-07-13T06:13:02;12.70;;;6.20;;
41305;SDS011;27051;50.376;19.152;2023-07-13T06:15:28;10.70;;;6.40;;
41305;SDS011;27051;50.376;19.152;2023-07-13T06:17:55;11.10;;;6.20;;
41305;SDS011;27051;50.376;19.152;2023-07-13T06:20:21;11.80;;;6.20;;
41305;SDS011;27051;50.376;19.152;2023-07-13T06:22:48;9.60;;;6.00;;
41305;SDS011;27051;50.376;19.152;2023-07-13T06:25:24;15.90;;;6.40;;
41305;SDS011;27051;50.376;19.152;2023-07-13T06:27:50;11.50;;;6.80;;
41305;SDS011;27051;50.376;19.152;2023-07-13T06:30:17;13.00;;;6.10;;
41305;SDS011;27051;50.376;19.152;2023-07-13T06:32:43;12.00;;;6.50;;
41305;SDS011;27051;50.376;19.152;2023-07-13T06:35:10;11.50;;;6.40;;
41305;SDS011;27051;50.376;19.152;2023-07-13T06:37:36;9.20;;;5.70;;
41305;SDS011;27051;50.376;19.152;2023-07-13T06:40:03;10.90;;;5.80;;
41305;SDS011;27051;50.376;19.152;2023-07-13T06:42:30;9.80;;;6.10;;
41305;SDS011;27051;50.376;19.152;2023-07-13T06:44:56;11.80;;;6.40;;
41305;SDS011;27051;50.376;19.152;2023-07-13T06:47:23;10.10;;;6.40;;
41305;SDS011;27051;50.376;19.152;2023-07-13T06:49:49;11.50;;;6.40;;
41305;SDS011;27051;50.376;19.152;2023-07-13T06:52:16;10.20;;;6.30;;
41305;SDS011;27051;50.376;19.152;2023-07-13T06:54:43;12.60;;;6.60;;
41305;SDS011;27051;50.376;19.152;2023-07-13T06:57:09;9.60;;;6.70;;
41305;SDS011;27051;50.376;19.152;2023-07-13T06:59:35;9.30;;;6.10;;
41305;SDS011;27051;50.376;19.152;2023-07-13T07:02:02;11.80;;;5.70;;
41305;SDS011;27051;50.376;19.152;2023-07-13T07:04:29;12.00;;;6.60;;
41305;SDS011;27051;50.376;19.152;2023-07-13T07:06:55;11.60;;;5.90;;
41305;SDS011;27051;50.376;19.152;2023-07-13T07:09:22;11.60;;;6.00;;
41305;SDS011;27051;50.376;19.152;2023-07-13T07:11:48;11.40;;;6.10;;
41305;SDS011;27051;50.376;19.152;2023-07-13T07:14:15;9.40;;;6.60;;
41305;SDS011;27051;50.376;19.152;2023-07-13T07:16:41;10.50;;;5.40;;
41305;SDS011;27051;50.376;19.152;2023-07-13T07:19:08;11.00;;;5.70;;
41305;SDS011;27051;50.376;19.152;2023-07-13T07:21:35;9.70;;;5.50;;
41305;SDS011;27051;50.376;19.152;2023-07-13T07:24:01;7.70;;;4.80;;
41305;SDS011;27051;50.376;19.152;2023-07-13T07:26:28;7.50;;;4.00;;
41305;SDS011;27051;50.376;19.152;2023-07-13T07:28:54;6.10;;;3.90;;
41305;SDS011;27051;50.376;19.152;2023-07-13T07:31:21;9.80;;;5.00;;
41305;SDS011;27051;50.376;19.152;2023-07-13T07:33:48;7.00;;;4.50;;
41305;SDS011;27051;50.376;19.152;2023-07-13T07:36:14;7.10;;;4.00;;
41305;SDS011;27051;50.376;19.152;2023-07-13T07:38:42;7.90;;;4.20;;
41305;SDS011;27051;50.376;19.152;2023-07-13T07:41:09;11.70;;;4.40;;
41305;SDS011;27051;50.376;19.152;2023-07-13T07:43:36;10.30;;;4.60;;
41305;SDS011;27051;50.376;19.152;2023-07-13T07:46:03;6.50;;;4.20;;
41305;SDS011;27051;50.376;19.152;2023-07-13T07:48:30;7.60;;;4.50;;
41305;SDS011;27051;50.376;19.152;2023-07-13T07:50:57;6.90;;;4.70;;
41305;SDS011;27051;50.376;19.152;2023-07-13T07:53:24;9.60;;;4.90;;
41305;SDS011;27051;50.376;19.152;2023-07-13T07:55:50;10.20;;;5.30;;
41305;SDS011;27051;50.376;19.152;2023-07-13T07:58:17;7.30;;;4.60;;
41305;SDS011;27051;50.376;19.152;2023-07-13T08:00:44;17.60;;;5.90;;
41305;SDS011;27051;50.376;19.152;2023-07-13T08:03:10;9.30;;;5.50;;
41305;SDS011;27051;50.376;19.152;2023-07-13T08:05:37;7.80;;;5.10;;
41305;SDS011;27051;50.376;19.152;2023-07-13T08:08:03;7.20;;;4.80;;
41305;SDS011;27051;50.376;19.152;2023-07-13T08:10:30;6.90;;;4.80;;
41305;SDS011;27051;50.376;19.152;2023-07-13T08:12:57;10.00;;;5.30;;
41305;SDS011;27051;50.376;19.152;2023-07-13T08:15:23;11.70;;;6.00;;
41305;SDS011;27051;50.376;19.152;2023-07-13T08:17:50;13.50;;;6.10;;
41305;SDS011;27051;50.376;19.152;2023-07-13T08:20:17;8.30;;;5.30;;
41305;SDS011;27051;50.376;19.152;2023-07-13T08:22:43;9.90;;;6.10;;
41305;SDS011;27051;50.376;19.152;2023-07-13T08:25:10;10.60;;;6.00;;
41305;SDS011;27051;50.376;19.152;2023-07-13T08:27:36;10.30;;;5.80;;
41305;SDS011;27051;50.376;19.152;2023-07-13T08:30:03;9.60;;;5.90;;
41305;SDS011;27051;50.376;19.152;2023-07-13T08:32:30;11.20;;;5.80;;
41305;SDS011;27051;50.376;19.152;2023-07-13T08:34:57;9.80;;;5.10;;
41305;SDS011;27051;50.376;19.152;2023-07-13T08:37:24;7.60;;;4.70;;
41305;SDS011;27051;50.376;19.152;2023-07-13T08:39:50;16.40;;;6.00;;
41305;SDS011;27051;50.376;19.152;2023-07-13T08:45:21;13.00;;;5.90;;
41305;SDS011;27051;50.376;19.152;2023-07-13T08:47:53;11.00;;;5.60;;
41305;SDS011;27051;50.376;19.152;2023-07-13T08:50:49;10.20;;;5.50;;
41305;SDS011;27051;50.376;19.152;2023-07-13T08:54:21;10.20;;;5.70;;
41305;SDS011;27051;50.376;19.152;2023-07-13T08:56:29;7.90;;;5.10;;
41305;SDS011;27051;50.376;19.152;2023-07-13T08:58:59;10.00;;;5.80;;
41305;SDS011;27051;50.376;19.152;2023-07-13T09:04:40;8.20;;;5.30;;
41305;SDS011;27051;50.376;19.152;2023-07-13T09:15:39;8.50;;;4.70;;
41305;SDS011;27051;50.376;19.152;2023-07-13T09:23:19;9.20;;;4.70;;
41305;SDS011;27051;50.376;19.152;2023-07-13T09:25:48;10.10;;;6.10;;
41305;SDS011;27051;50.376;19.152;2023-07-13T09:28:19;9.80;;;6.70;;
41305;SDS011;27051;50.376;19.152;2023-07-13T09:33:34;9.20;;;5.80;;
41305;SDS011;27051;50.376;19.152;2023-07-13T09:36:01;10.60;;;6.60;;
41305;SDS011;27051;50.376;19.152;2023-07-13T09:38:28;10.60;;;6.20;;
41305;SDS011;27051;50.376;19.152;2023-07-13T09:41:01;9.10;;;6.50;;
41305;SDS011;27051;50.376;19.152;2023-07-13T09:46:38;12.90;;;6.40;;
41305;SDS011;27051;50.376;19.152;2023-07-13T09:49:09;10.30;;;5.80;;
41305;SDS011;27051;50.376;19.152;2023-07-13T09:51:39;11.70;;;6.80;;
41305;SDS011;27051;50.376;19.152;2023-07-13T09:54:17;8.30;;;6.10;;
41305;SDS011;27051;50.376;19.152;2023-07-13T09:56:45;9.20;;;5.80;;
41305;SDS011;27051;50.376;19.152;2023-07-13T09:59:21;11.90;;;5.50;;
41305;SDS011;27051;50.376;19.152;2023-07-13T10:01:49;9.80;;;5.00;;
41305;SDS011;27051;50.376;19.152;2023-07-13T10:04:17;9.00;;;4.80;;
41305;SDS011;27051;50.376;19.152;2023-07-13T10:06:47;9.20;;;4.50;;
41305;SDS011;27051;50.376;19.152;2023-07-13T10:09:17;8.30;;;4.40;;
41305;SDS011;27051;50.376;19.152;2023-07-13T10:11:43;6.50;;;4.20;;
41305;SDS011;27051;50.376;19.152;2023-07-13T10:16:42;8.80;;;3.30;;
41305;SDS011;27051;50.376;19.152;2023-07-13T10:24:42;5.30;;;2.80;;
41305;SDS011;27051;50.376;19.152;2023-07-13T10:27:16;8.20;;;2.90;;
41305;SDS011;27051;50.376;19.152;2023-07-13T10:29:51;4.80;;;2.70;;
41305;SDS011;27051;50.376;19.152;2023-07-13T10:32:29;2.30;;;2.10;;
41305;SDS011;27051;50.376;19.152;2023-07-13T10:34:56;4.80;;;2.40;;
41305;SDS011;27051;50.376;19.152;2023-07-13T10:37:23;7.50;;;2.70;;
41305;SDS011;27051;50.376;19.152;2023-07-13T10:42:43;5.80;;;2.80;;
41305;SDS011;27051;50.376;19.152;2023-07-13T10:45:21;6.50;;;2.40;;
41305;SDS011;27051;50.376;19.152;2023-07-13T10:47:52;8.50;;;2.50;;
41305;SDS011;27051;50.376;19.152;2023-07-13T10:50:21;4.40;;;2.50;;
41305;SDS011;27051;50.376;19.152;2023-07-13T10:52:51;9.20;;;2.90;;
41305;SDS011;27051;50.376;19.152;2023-07-13T10:59:00;7.00;;;2.70;;
41305;SDS011;27051;50.376;19.152;2023-07-13T11:01:17;10.90;;;3.60;;
41305;SDS011;27051;50.376;19.152;2023-07-13T11:08:54;4.00;;;2.70;;
41305;SDS011;27051;50.376;19.152;2023-07-13T11:17:36;6.40;;;3.00;;
41305;SDS011;27051;50.376;19.152;2023-07-13T11:20:19;7.90;;;3.00;;
41305;SDS011;27051;50.376;19.152;2023-07-13T11:22:50;4.60;;;2.80;;
41305;SDS011;27051;50.376;19.152;2023-07-13T11:25:39;4.50;;;2.30;;
41305;SDS011;27051;50.376;19.152;2023-07-13T11:33:24;5.10;;;2.90;;
41305;SDS011;27051;50.376;19.152;2023-07-13T11:36:14;4.50;;;3.00;;
41305;SDS011;27051;50.376;19.152;2023-07-13T11:38:44;10.60;;;3.10;;
41305;SDS011;27051;50.376;19.152;2023-07-13T11:41:21;9.00;;;3.70;;
41305;SDS011;27051;50.376;19.152;2023-07-13T11:43:53;7.70;;;3.40;;
41305;SDS011;27051;50.376;19.152;2023-07-13T11:46:22;6.90;;;3.40;;
41305;SDS011;27051;50.376;19.152;2023-07-13T11:51:34;7.20;;;3.90;;
41305;SDS011;27051;50.376;19.152;2023-07-13T11:54:04;9.30;;;4.70;;
41305;SDS011;27051;50.376;19.152;2023-07-13T11:56:33;5.60;;;3.80;;
41305;SDS011;27051;50.376;19.152;2023-07-13T11:59:03;10.20;;;4.20;;
41305;SDS011;27051;50.376;19.152;2023-07-13T12:01:47;7.00;;;3.80;;
41305;SDS011;27051;50.376;19.152;2023-07-13T12:04:25;10.00;;;3.80;;
41305;SDS011;27051;50.376;19.152;2023-07-13T12:07:05;6.70;;;3.60;;
41305;SDS011;27051;50.376;19.152;2023-07-13T12:09:33;6.80;;;3.80;;
41305;SDS011;27051;50.376;19.152;2023-07-13T12:12:00;6.10;;;3.80;;
41305;SDS011;27051;50.376;19.152;2023-07-13T12:14:27;6.30;;;3.50;;
41305;SDS011;27051;50.376;19.152;2023-07-13T12:17:03;7.80;;;4.40;;
41305;SDS011;27051;50.376;19.152;2023-07-13T12:19:56;9.10;;;3.90;;
41305;SDS011;27051;50.376;19.152;2023-07-13T12:22:23;4.70;;;3.30;;
41305;SDS011;27051;50.376;19.152;2023-07-13T12:24:51;6.80;;;3.70;;
41305;SDS011;27051;50.376;19.152;2023-07-13T12:27:24;4.90;;;3.00;;
41305;SDS011;27051;50.376;19.152;2023-07-13T12:30:00;4.40;;;2.80;;
41305;SDS011;27051;50.376;19.152;2023-07-13T12:32:56;4.80;;;2.80;;
41305;SDS011;27051;50.376;19.152;2023-07-13T12:35:26;4.00;;;3.20;;
41305;SDS011;27051;50.376;19.152;2023-07-13T12:37:54;3.60;;;2.70;;
41305;SDS011;27051;50.376;19.152;2023-07-13T12:40:24;4.00;;;2.80;;
41305;SDS011;27051;50.376;19.152;2023-07-13T12:43:04;5.90;;;3.40;;
41305;SDS011;27051;50.376;19.152;2023-07-13T12:45:30;7.60;;;3.70;;
41305;SDS011;27051;50.376;19.152;2023-07-13T12:48:19;6.60;;;4.10;;
41305;SDS011;27051;50.376;19.152;2023-07-13T12:50:46;5.90;;;3.70;;
41305;SDS011;27051;50.376;19.152;2023-07-13T12:53:16;4.50;;;3.50;;
41305;SDS011;27051;50.376;19.152;2023-07-13T12:55:53;6.30;;;3.30;;
41305;SDS011;27051;50.376;19.152;2023-07-13T12:58:27;3.80;;;3.00;;
41305;SDS011;27051;50.376;19.152;2023-07-13T13:01:15;5.40;;;3.70;;
41305;SDS011;27051;50.376;19.152;2023-07-13T13:03:47;7.40;;;3.50;;
41305;SDS011;27051;50.376;19.152;2023-07-13T13:06:21;3.80;;;3.20;;
41305;SDS011;27051;50.376;19.152;2023-07-13T13:08:53;6.30;;;4.20;;
41305;SDS011;27051;50.376;19.152;2023-07-13T13:11:22;9.60;;;3.80;;
41305;SDS011;27051;50.376;19.152;2023-07-13T13:13:50;4.60;;;3.00;;
41305;SDS011;27051;50.376;19.152;2023-07-13T13:18:56;8.90;;;5.30;;
41305;SDS011;27051;50.376;19.152;2023-07-13T13:21:23;4.20;;;3.30;;
41305;SDS011;27051;50.376;19.152;2023-07-13T13:23:51;7.90;;;3.50;;
41305;SDS011;27051;50.376;19.152;2023-07-13T13:26:23;6.00;;;3.10;;
41305;SDS011;27051;50.376;19.152;2023-07-13T13:28:50;3.20;;;2.80;;
41305;SDS011;27051;50.376;19.152;2023-07-13T13:31:16;3.10;;;2.80;;
41305;SDS011;27051;50.376;19.152;2023-07-13T13:33:44;3.70;;;2.70;;
41305;SDS011;27051;50.376;19.152;2023-07-13T13:36:21;4.20;;;2.80;;
41305;SDS011;27051;50.376;19.152;2023-07-13T13:38:49;8.00;;;4.70;;
41305;SDS011;27051;50.376;19.152;2023-07-13T13:41:16;9.80;;;6.10;;
41305;SDS011;27051;50.376;19.152;2023-07-13T13:43:43;6.40;;;5.20;;
41305;SDS011;27051;50.376;19.152;2023-07-13T13:48:58;4.60;;;3.10;;
41305;SDS011;27051;50.376;19.152;2023-07-13T13:51:24;3.20;;;2.80;;
41305;SDS011;27051;50.376;19.152;2023-07-13T13:53:52;3.10;;;2.80;;
41305;SDS011;27051;50.376;19.152;2023-07-13T13:56:19;6.50;;;2.80;;
41305;SDS011;27051;50.376;19.152;2023-07-13T13:58:46;3.60;;;2.90;;
41305;SDS011;27051;50.376;19.152;2023-07-13T14:01:16;4.70;;;2.80;;
41305;SDS011;27051;50.376;19.152;2023-07-13T14:03:44;3.50;;;2.90;;
41305;SDS011;27051;50.376;19.152;2023-07-13T14:06:12;5.30;;;2.60;;
41305;SDS011;27051;50.376;19.152;2023-07-13T14:08:39;3.50;;;2.30;;
41305;SDS011;27051;50.376;19.152;2023-07-13T14:11:05;4.30;;;2.80;;
41305;SDS011;27051;50.376;19.152;2023-07-13T14:13:38;3.20;;;2.60;;
41305;SDS011;27051;50.376;19.152;2023-07-13T14:16:19;11.10;;;6.00;;
41305;SDS011;27051;50.376;19.152;2023-07-13T14:18:47;3.30;;;2.90;;
41305;SDS011;27051;50.376;19.152;2023-07-13T14:21:16;3.70;;;2.90;;
41305;SDS011;27051;50.376;19.152;2023-07-13T14:23:45;2.60;;;2.40;;
41305;SDS011;27051;50.376;19.152;2023-07-13T14:26:14;3.70;;;2.70;;
41305;SDS011;27051;50.376;19.152;2023-07-13T14:28:44;4.60;;;2.60;;
41305;SDS011;27051;50.376;19.152;2023-07-13T14:31:14;2.70;;;2.30;;
41305;SDS011;27051;50.376;19.152;2023-07-13T14:33:42;2.80;;;2.40;;
41305;SDS011;27051;50.376;19.152;2023-07-13T14:36:21;2.70;;;2.30;;
41305;SDS011;27051;50.376;19.152;2023-07-13T14:38:53;4.50;;;2.50;;
41305;SDS011;27051;50.376;19.152;2023-07-13T14:41:20;4.10;;;2.70;;
41305;SDS011;27051;50.376;19.152;2023-07-13T14:43:47;4.30;;;3.30;;
41305;SDS011;27051;50.376;19.152;2023-07-13T14:46:33;3.00;;;2.70;;
41305;SDS011;27051;50.376;19.152;2023-07-13T14:49:02;2.90;;;2.50;;
41305;SDS011;27051;50.376;19.152;2023-07-13T14:51:32;3.80;;;3.00;;
41305;SDS011;27051;50.376;19.152;2023-07-13T14:54:04;2.70;;;2.30;;
41305;SDS011;27051;50.376;19.152;2023-07-13T14:59:10;3.70;;;2.50;;
41305;SDS011;27051;50.376;19.152;2023-07-13T15:01:36;4.10;;;2.60;;
41305;SDS011;27051;50.376;19.152;2023-07-13T15:04:05;5.90;;;2.70;;
41305;SDS011;27051;50.376;19.152;2023-07-13T15:06:50;3.50;;;2.70;;
41305;SDS011;27051;50.376;19.152;2023-07-13T15:09:23;5.20;;;3.60;;
41305;SDS011;27051;50.376;19.152;2023-07-13T15:11:49;5.30;;;3.10;;
41305;SDS011;27051;50.376;19.152;2023-07-13T15:14:25;4.50;;;3.10;;
41305;SDS011;27051;50.376;19.152;2023-07-13T15:16:53;3.00;;;2.80;;
41305;SDS011;27051;50.376;19.152;2023-07-13T15:19:21;3.60;;;3.10;;
41305;SDS011;27051;50.376;19.152;2023-07-13T15:21:49;3.60;;;3.00;;
41305;SDS011;27051;50.376;19.152;2023-07-13T15:24:16;3.40;;;2.70;;
41305;SDS011;27051;50.376;19.152;2023-07-13T15:26:43;5.60;;;3.10;;
41305;SDS011;27051;50.376;19.152;2023-07-13T15:29:10;3.20;;;2.60;;
41305;SDS011;27051;50.376;19.152;2023-07-13T15:31:37;4.90;;;3.00;;
41305;SDS011;27051;50.376;19.152;2023-07-13T15:34:07;3.30;;;3.00;;
41305;SDS011;27051;50.376;19.152;2023-07-13T15:36:38;3.40;;;3.10;;
41305;SDS011;27051;50.376;19.152;2023-07-13T15:39:05;6.00;;;3.30;;
41305;SDS011;27051;50.376;19.152;2023-07-13T15:41:32;7.40;;;3.40;;
41305;SDS011;27051;50.376;19.152;2023-07-13T15:44:00;4.00;;;3.00;;
41305;SDS011;27051;50.376;19.152;2023-07-13T15:46:46;3.40;;;2.90;;
41305;SDS011;27051;50.376;19.152;2023-07-13T15:49:13;3.40;;;3.10;;
41305;SDS011;27051;50.376;19.152;2023-07-13T15:51:40;3.10;;;2.80;;
41305;SDS011;27051;50.376;19.152;2023-07-13T15:54:08;9.20;;;3.30;;
41305;SDS011;27051;50.376;19.152;2023-07-13T15:56:43;5.90;;;3.20;;
41305;SDS011;27051;50.376;19.152;2023-07-13T15:59:13;3.40;;;3.10;;
41305;SDS011;27051;50.376;19.152;2023-07-13T16:01:40;4.40;;;3.30;;
41305;SDS011;27051;50.376;19.152;2023-07-13T16:04:07;3.50;;;2.90;;